• pl
  • eng

Awiacja
WIADOMOŚCI
ostatnia aktualizacja: 08.05.2017 13:35
Szanowni Państwo,

Instytut Meteorologii i Gospodarki Wodnej - Państwowy Instytut Badawczy, poszukuje kandydatów do pracy na stanowisku administracyjnym - specjalista w Centrum Meteorologicznej Osłony Lotnictwa Cywilnego - Wydziale Organizacji Meteorologicznej Osłony Lotnictwa Cywilnego w Warszawie. Szczegółowe informacje znajdują się tutaj.

Kliknij na pogrubioną czerwoną nazwę, aby odkodować depeszę. 14:01 29.06.2017
  • WIND
  • SIGNIFICANT EURO
  • SIGNIFICANT
  • SIGMET
  • AIRMET
  • TAF FC
  • TAF FT
  • METAR GG30
  • METAR GG00


METAR EPBY 291200Z 07006KT 030V090 9999 -SHRA SCT044CB 21/19 Q0991
RETSRA =

METAR EPGD 291200Z 03011KT 9999 FEW017 23/19 Q0994 =

METAR EPKK 291200Z 21017KT 190V250 9999 FEW050 27/12 Q0996 =

METAR EPKT 291200Z 21022G32KT CAVOK 27/11 Q0995 =

METAR EPLB 291200Z 19010KT 9999 VCTS FEW060CB 23/19 Q0996 =

METAR EPLL 291200Z 21010G22KT 150V240 CAVOK 28/14 Q0993 =

METAR EPMO 291200Z 14007KT 110V180 9000 TSRA BKN088CB 18/17 Q0994 =

METAR EPPO 291200Z 16010KT 9999 FEW046CB BKN049 26/15 Q0990 =

METAR EPRA 291200Z 17014G24KT CAVOK 25/17 Q0996=

METAR EPRZ 291200Z 20019KT CAVOK 27/13 Q0998 =

METAR EPSC 291200Z 07006KT 010V110 9999 SCT024 BKN037 26/19 Q0990 =

METAR EPSY 291200Z 09008KT 030V130 9999 SCT035 27/20 Q0995=

METAR EPWA 291200Z 13008KT 9999 FEW050CB 21/18 Q0994 RETS NOSIG=

METAR EPWR 291200Z 22017KT 190V250 9999 FEW035TCU SCT040 25/15 Q0992
=

METAR EPZG 291200Z 21007KT 170V240 9999 TS SCT038CB 26/19 Q0989 RETS
=
Awiacja.imgw.pl jest pogodowym serwisem informacyjnym
Instytutu Meteorologii i Gospodarki Wodnej Państwowego Instytutu Badawczego.
Copyright IMGW PIB 2009-2011© Wszelkie prawa zastrzeżone.